createdAt,value
2019-01-06T00:00:00.615Z,85.65
2019-01-06T02:26:45.142Z,84.62
2019-01-06T02:29:33.543Z,84.81
2019-01-06T02:32:22.221Z,84.95
2019-01-06T02:35:37.204Z,85.10
2019-01-06T02:38:37.566Z,85.30
2019-01-06T09:42:38.257Z,80.47
2019-01-06T14:59:38.204Z,80.19
2019-01-06T16:47:13.369Z,80.42
2019-01-06T16:50:19.541Z,79.03
2019-01-06T16:53:26.190Z,80.25
2019-01-06T17:09:11.369Z,81.37
2019-01-06T19:20:27.788Z,83.90
2019-01-06T19:23:18.098Z,84.05
2019-01-06T19:26:23.063Z,84.20
2019-01-06T19:29:31.378Z,84.35
2019-01-06T19:32:37.687Z,82.61
2019-01-06T19:35:42.971Z,83.19
2019-01-06T19:38:50.349Z,83.53
2019-01-06T19:41:57.203Z,81.68
2019-01-06T19:44:45.087Z,82.49
2019-01-06T19:47:47.387Z,83.05
2019-01-06T19:50:53.708Z,83.34
2019-01-06T19:54:08.243Z,83.62
2019-01-06T19:57:14.493Z,83.88
2019-01-06T20:00:22.193Z,84.18
2019-01-06T20:06:48.082Z,84.80
2019-01-06T20:09:58.730Z,85.11
2019-01-06T20:12:49.299Z,85.34
2019-01-06T20:16:04.386Z,85.53
2019-01-06T20:19:15.323Z,84.26
2019-01-06T20:22:29.009Z,85.14
2019-01-06T20:25:25.063Z,86.02
2019-01-06T20:28:22.383Z,86.32
2019-01-06T20:31:32.477Z,86.56
2019-01-06T20:34:24.120Z,86.87
2019-01-06T20:37:33.390Z,87.04
2019-01-06T20:40:21.055Z,87.26
2019-01-06T20:43:21.841Z,87.49
2019-01-06T20:46:31.046Z,87.61
2019-01-06T20:49:32.867Z,87.71
2019-01-06T20:52:41.636Z,87.85
2019-01-06T20:55:29.695Z,88.08
2019-01-06T20:58:29.606Z,88.24
2019-01-06T21:01:38.584Z,88.35
2019-01-06T21:04:52.361Z,88.35
2019-01-06T21:07:49.987Z,88.37
2019-01-06T21:10:49.841Z,88.45
2019-01-06T21:14:08.167Z,88.54
2019-01-06T21:17:11.495Z,88.48
2019-01-06T21:20:06.239Z,88.58
2019-01-06T21:26:29.912Z,88.51
2019-01-06T21:29:21.852Z,88.46
2019-01-06T21:32:28.546Z,88.57
2019-01-06T21:35:35.382Z,86.84
2019-01-06T21:41:58.704Z,87.58
2019-01-06T21:44:53.155Z,87.68
2019-01-06T21:47:52.489Z,87.67
2019-01-06T21:51:01.747Z,87.77
2019-01-06T21:53:51.902Z,87.85
2019-01-06T21:56:48.236Z,87.86
2019-01-06T21:59:41.319Z,87.92
2019-01-06T22:02:41.006Z,87.91
2019-01-06T22:05:28.699Z,86.38
2019-01-06T22:08:35.586Z,87.05
2019-01-06T22:11:32.764Z,87.34
2019-01-06T22:14:27.883Z,87.55
2019-01-06T22:17:35.426Z,87.60
2019-01-06T22:20:57.194Z,87.74
2019-01-06T22:23:44.355Z,87.92
2019-01-06T22:26:43.954Z,87.99
2019-01-06T22:29:49.597Z,88.13
2019-01-06T22:36:19.156Z,88.30
2019-01-06T22:39:10.868Z,88.54
2019-01-06T22:42:07.598Z,88.76
2019-01-06T22:45:03.968Z,88.87
2019-01-06T22:51:10.340Z,89.25
2019-01-06T22:54:01.581Z,89.23
2019-01-06T22:57:08.540Z,89.26
2019-01-06T23:00:07.441Z,89.25
2019-01-06T23:03:13.815Z,89.34
2019-01-06T23:06:07.635Z,89.31
2019-01-06T23:09:07.299Z,89.32
2019-01-06T23:11:55.071Z,89.30
2019-01-06T23:14:42.080Z,89.32
2019-01-06T23:17:32.224Z,89.31
2019-01-06T23:20:24.650Z,89.34
2019-01-06T23:23:12.972Z,89.37
2019-01-06T23:26:02.815Z,89.49
2019-01-06T23:39:03.618Z,89.40
2019-01-06T23:41:51.559Z,89.40
2019-01-06T23:44:42.979Z,89.40
2019-01-06T23:47:59.172Z,89.37
2019-01-06T23:50:46.504Z,89.43
2019-01-06T23:53:33.977Z,89.40
2019-01-06T23:56:27.090Z,89.39
2019-01-06T23:59:16.848Z,89.42
